Time;durP1;ratioP1;P1;durP2;ratioP2;P2;SDS_P1;SDS_P2;PMS_P1;PMS_P2;Temp;Humidity;BMP_temperature;BMP_pressure;BME280_temperature;BME280_humidity;BME280_pressure;Samples;Min_cycle;Max_cycle;Signal;HPM_P1;HPM_P2
2021/03/19 00:00:08;;;;;;;7.63;4.55;;;-0.90;99.90;;;-1.17;62.43;97590.47;171877;28;2029;-72
2021/03/19 00:00:17;;;;;;;7.84;4.67;;;-0.90;99.90;;;-1.14;62.57;97597.34;164232;29;188210;-73
2021/03/19 00:00:25;;;;;;;9.25;5.10;;;-0.90;99.90;;;-1.13;63.19;97597.19;166991;28;121991;-73
2021/03/19 00:00:31;;;;;;;9.97;5.28;;;-0.90;99.90;;;-1.13;62.58;97599.84;167094;28;122272;-72
2021/03/19 00:00:37;;;;;;;10.13;5.25;;;-0.90;99.90;;;-1.18;62.64;97580.84;172419;28;1262;-73
2021/03/19 00:00:43;;;;;;;10.48;5.13;;;-0.90;99.90;;;-1.12;62.72;97598.03;172662;28;950;-73
2021/03/19 00:00:49;;;;;;;9.90;4.90;;;-0.90;99.90;;;-1.15;62.56;97596.50;172312;28;2188;-73
2021/03/19 00:00:55;;;;;;;9.65;4.90;;;-0.90;99.90;;;-1.16;62.39;97586.03;172399;28;1172;-73
2021/03/19 00:01:01;;;;;;;9.43;4.88;;;-0.90;99.90;;;-1.16;62.50;97592.16;172855;28;2082;-72
2021/03/19 00:01:07;;;;;;;9.87;5.10;;;-0.90;99.90;;;-1.14;62.45;97597.34;172888;28;1356;-72
2021/03/19 00:01:13;;;;;;;9.08;5.04;;;-0.90;99.90;;;-1.15;62.21;97604.41;169912;28;58951;-73
2021/03/19 00:01:19;;;;;;;9.02;5.00;;;-0.90;99.90;;;-1.22;62.56;97589.97;171994;28;994;-73
2021/03/19 00:01:25;;;;;;;8.38;4.95;;;-0.90;99.90;;;-1.16;62.56;97596.59;171164;28;1291;-73
2021/03/19 00:01:31;;;;;;;7.40;4.70;;;-0.90;99.90;;;-1.17;62.20;97594.91;171961;28;1730;-73
2021/03/19 00:01:40;;;;;;;7.22;4.53;;;-0.90;99.90;;;-1.16;62.32;97601.88;171002;28;18069;-73
2021/03/19 00:01:46;;;;;;;7.75;4.67;;;-0.90;99.90;;;-1.17;61.96;97598.38;168995;28;125312;-73
2021/03/19 00:01:52;;;;;;;7.13;4.50;;;-0.90;99.90;;;-1.13;62.71;97602.47;172382;28;1443;-73
2021/03/19 00:01:58;;;;;;;7.13;4.50;;;-0.90;99.90;;;-1.18;62.39;97596.69;171681;28;1229;-72
2021/03/19 00:02:04;;;;;;;7.97;4.75;;;-0.90;99.90;;;-1.17;62.61;97592.25;171928;28;932;-73
2021/03/19 00:02:10;;;;;;;7.32;4.65;;;-0.90;99.90;;;-1.24;62.15;97577.84;171150;28;1394;-73
2021/03/19 00:02:16;;;;;;;7.70;4.70;;;-0.90;99.90;;;-1.13;62.24;97599.84;171985;28;1088;-73
2021/03/19 00:02:22;;;;;;;8.23;4.80;;;-0.90;99.90;;;-1.15;62.28;97603.56;171826;28;1162;-73
2021/03/19 00:02:28;;;;;;;8.90;4.80;;;-0.90;99.90;;;-1.19;62.56;97592.38;171165;28;1332;-73
2021/03/19 00:02:34;;;;;;;8.46;4.60;;;-0.90;99.90;;;-1.18;62.29;97598.50;170727;28;55513;-73
2021/03/19 00:02:41;;;;;;;8.55;4.60;;;-0.90;99.90;;;-1.20;62.72;97595.13;171813;28;1158;-73
2021/03/19 00:02:48;;;;;;;8.40;4.67;;;-0.90;99.90;;;-1.18;62.61;97599.34;173320;28;1009;-73
2021/03/19 00:02:55;;;;;;;8.10;4.72;;;-0.90;99.90;;;-1.18;62.23;97596.69;169864;28;56687;-73
2021/03/19 00:03:01;;;;;;;7.76;4.74;;;-0.90;99.90;;;-1.22;62.23;97587.31;169364;28;56616;-72
2021/03/19 00:03:07;;;;;;;7.55;4.82;;;-0.90;99.90;;;-1.22;62.45;97592.59;171750;28;1324;-73
2021/03/19 00:03:13;;;;;;;8.32;4.97;;;-0.90;99.90;;;-1.23;62.19;97598.81;171930;28;1009;-73
2021/03/19 00:03:19;;;;;;;8.60;5.00;;;-0.90;99.90;;;-1.21;62.36;97593.44;172383;28;1194;-72
2021/03/19 00:03:25;;;;;;;8.48;4.95;;;-0.90;99.90;;;-1.19;62.42;97597.66;172502;28;1161;-73
2021/03/19 00:03:31;;;;;;;8.73;5.10;;;-0.90;99.90;;;-1.17;62.56;97601.03;172658;28;1029;-73
2021/03/19 00:03:37;;;;;;;8.80;5.05;;;-0.90;99.90;;;-1.22;62.67;97589.97;171966;28;2152;-72
2021/03/19 00:03:43;;;;;;;7.80;4.88;;;-0.90;99.90;;;-1.18;62.56;97594.06;171233;28;2065;-73
2021/03/19 00:03:49;;;;;;;7.25;4.60;;;-0.90;99.90;;;-1.20;62.31;97595.97;171746;28;1819;-72
2021/03/19 00:03:55;;;;;;;7.40;4.60;;;-0.90;99.90;;;-1.22;62.20;97592.59;170875;28;2101;-72
2021/03/19 00:04:02;;;;;;;7.18;4.50;;;-0.90;99.90;;;-1.15;62.13;97596.50;171192;28;57809;-73
2021/03/19 00:04:09;;;;;;;7.20;4.47;;;-0.90;99.90;;;-1.18;62.40;97593.22;173004;28;1300;-71
2021/03/19 00:04:15;;;;;;;7.60;4.40;;;-0.90;99.90;;;-1.15;62.49;97601.78;171970;28;891;-73
2021/03/19 00:04:21;;;;;;;7.73;4.37;;;-0.90;99.90;;;-1.20;62.16;97590.69;172253;28;1616;-74
2021/03/19 00:04:27;;;;;;;7.97;4.45;;;-0.90;99.90;;;-1.15;61.92;97600.94;171319;28;950;-73
2021/03/19 00:04:33;;;;;;;8.07;4.38;;;-0.90;99.90;;;-1.16;62.22;97597.44;171050;28;1235;-73
2021/03/19 00:04:39;;;;;;;7.90;4.38;;;-0.90;99.90;;;-1.15;62.31;97600.94;171054;28;1112;-73
2021/03/19 00:04:45;;;;;;;7.53;4.50;;;-0.90;99.90;;;-1.18;62.43;97599.34;171944;28;1002;-73
2021/03/19 00:04:51;;;;;;;8.07;4.80;;;-0.90;99.90;;;-1.16;62.75;97594.78;172520;28;1184;-73
2021/03/19 00:04:58;;;;;;;8.00;4.78;;;-0.90;99.90;;;-1.16;62.15;97600.06;173282;28;982;-72
2021/03/19 00:05:15;;;;;;;8.30;5.02;;;-0.90;99.90;;;-1.20;62.17;97595.97;170085;28;56005;-72
2021/03/19 00:05:24;;;;;;;9.24;5.05;;;-0.90;99.90;;;-1.23;62.43;97590.91;160994;28;316584;-73
2021/03/19 00:05:30;;;;;;;9.49;4.97;;;-0.90;99.90;;;-1.23;62.53;97593.53;164302;29;186953;-74
2021/03/19 00:05:36;;;;;;;9.00;4.80;;;-0.90;99.90;;;-1.24;62.36;97589.22;171316;28;844;-73
2021/03/19 00:05:42;;;;;;;7.10;4.70;;;-0.90;99.90;;;-1.24;62.28;97586.56;171319;28;1010;-73
2021/03/19 00:05:48;;;;;;;7.00;4.57;;;-1.00;99.90;;;-1.23;62.65;97596.19;170520;29;1112;-73
2021/03/19 00:05:54;;;;;;;7.45;4.55;;;-1.00;99.90;;;-1.25;62.12;97586.72;170332;29;1209;-73
2021/03/19 00:06:01;;;;;;;7.57;4.50;;;-0.90;99.90;;;-1.21;62.19;97593.44;170542;29;1474;-72
2021/03/19 00:06:07;;;;;;;7.57;4.47;;;-0.90;99.90;;;-1.25;62.14;97592.84;172688;28;827;-73
2021/03/19 00:06:13;;;;;;;7.85;4.57;;;-0.90;99.90;;;-1.24;62.25;97593.69;172648;28;1025;-73
2021/03/19 00:06:19;;;;;;;8.13;4.70;;;-0.90;99.90;;;-1.20;62.38;97592.50;172646;28;1119;-73
2021/03/19 00:06:25;;;;;;;7.60;4.53;;;-0.90;99.90;;;-1.23;62.53;97593.53;171543;28;6312;-73
2021/03/19 00:06:32;;;;;;;7.20;4.40;;;-0.90;99.90;;;-1.28;62.26;97579.84;171196;28;1531;-74
2021/03/19 00:06:38;;;;;;;6.97;4.53;;;-0.90;99.90;;;-1.26;62.32;97585.84;170446;29;1276;-73
2021/03/19 00:06:45;;;;;;;6.93;4.50;;;-0.90;99.90;;;-1.21;62.29;97598.72;169827;29;1296;-73
2021/03/19 00:06:51;;;;;;;6.78;4.42;;;-0.90;99.90;;;-1.20;62.30;97603.91;169947;28;55304;-73
2021/03/19 00:06:57;;;;;;;7.03;4.45;;;-0.90;99.90;;;-1.21;62.18;97596.94;172528;28;1324;-72
2021/03/19 00:07:03;;;;;;;7.03;4.50;;;-1.00;99.90;;;-1.31;61.96;97580.91;172475;28;1441;-72
2021/03/19 00:07:09;;;;;;;7.47;4.38;;;-0.90;99.90;;;-1.25;62.26;97592.00;172512;28;1197;-73
2021/03/19 00:07:16;;;;;;;8.07;4.32;;;-0.90;99.90;;;-1.24;62.01;97594.50;171809;28;879;-73
2021/03/19 00:07:24;;;;;;;8.12;4.32;;;-0.90;99.90;;;-1.30;62.10;97597.59;170441;28;58128;-73
2021/03/19 00:07:47;;;;;;;8.12;4.50;;;-1.00;99.90;;;-1.34;62.18;97582.91;167823;28;121954;-74
2021/03/19 00:07:58;;;;;;;8.23;4.45;;;-1.00;99.90;;;-1.28;62.49;97585.13;159888;28;316022;-73
2021/03/19 00:08:05;;;;;;;8.73;4.47;;;-1.00;99.90;;;-1.25;62.22;97600.75;169036;28;66950;-73
2021/03/19 00:08:11;;;;;;;8.45;4.45;;;-1.00;99.90;;;-1.23;62.47;97593.53;172497;28;1054;-73
2021/03/19 00:08:17;;;;;;;8.95;4.47;;;-1.00;99.90;;;-1.28;62.44;97582.47;172112;28;1952;-73
2021/03/19 00:08:23;;;;;;;8.48;4.32;;;-0.90;99.90;;;-1.22;62.62;97597.03;170459;29;1143;-72
2021/03/19 00:08:29;;;;;;;8.33;4.50;;;-0.90;99.90;;;-1.24;62.09;97594.50;171859;28;1268;-73
2021/03/19 00:08:35;;;;;;;7.96;4.40;;;-0.90;99.90;;;-1.21;62.26;97593.44;170516;28;57582;-73
2021/03/19 00:08:42;;;;;;;7.77;4.40;;;-0.90;99.90;;;-1.26;62.45;97591.13;173076;28;1626;-72
2021/03/19 00:08:48;;;;;;;7.73;4.53;;;-0.90;99.90;;;-1.24;62.26;97591.84;173209;28;1873;-71
2021/03/19 00:08:54;;;;;;;7.43;4.57;;;-0.90;99.90;;;-1.18;62.33;97596.69;171861;28;1169;-73
2021/03/19 00:09:07;;;;;;;7.63;4.72;;;-0.90;99.90;;;-1.18;62.39;97594.06;171237;28;851;-73
2021/03/19 00:09:13;;;;;;;7.78;4.82;;;-0.90;99.90;;;-1.13;62.14;97596.34;161665;28;316514;-73
2021/03/19 00:09:19;;;;;;;7.85;4.90;;;-0.90;99.90;;;-1.16;62.07;97591.31;171936;28;1181;-73
2021/03/19 00:09:25;;;;;;;7.85;4.90;;;-0.90;99.90;;;-1.23;62.51;97580.34;172449;28;1205;-73
2021/03/19 00:09:31;;;;;;;10.18;4.85;;;-0.90;99.90;;;-1.20;62.12;97581.94;172594;28;996;-72
2021/03/19 00:09:37;;;;;;;10.57;4.90;;;-0.90;99.90;;;-1.15;62.26;97595.66;171928;28;904;-72
2021/03/19 00:09:44;;;;;;;10.90;5.00;;;-0.90;99.90;;;-1.20;62.48;97585.41;172016;28;1312;-73
2021/03/19 00:09:52;;;;;;;11.40;5.10;;;-0.90;99.90;;;-1.17;62.35;97589.63;171942;28;903;-73
2021/03/19 00:09:58;;;;;;;10.37;5.03;;;-0.90;99.90;;;-1.16;62.45;97597.44;172644;28;879;-72
2021/03/19 00:10:05;;;;;;;8.90;5.10;;;-0.90;99.90;;;-1.14;62.45;97592.06;171853;28;1274;-73
2021/03/19 00:10:17;;;;;;;8.37;4.85;;;-0.90;99.90;;;-1.14;62.39;97597.34;166810;28;122421;-72
2021/03/19 00:10:30;;;;;;;8.24;4.78;;;-0.90;99.90;;;-1.19;62.49;97587.06;160348;28;316478;-73
2021/03/19 00:10:36;;;;;;;8.65;4.84;;;-0.90;99.90;;;-1.16;62.35;97596.59;159633;28;338748;-73
2021/03/19 00:10:44;;;;;;;8.45;4.70;;;-0.90;99.90;;;-1.17;62.03;97590.47;171937;28;907;-73
2021/03/19 00:10:50;;;;;;;10.05;4.73;;;-0.90;99.90;;;-1.15;62.31;97593.00;167134;28;122804;-73
2021/03/19 00:10:56;;;;;;;8.98;4.55;;;-0.90;99.90;;;-1.20;62.11;97585.41;171759;28;1265;-73
2021/03/19 00:11:02;;;;;;;8.47;4.47;;;-0.90;99.90;;;-1.15;62.16;97596.50;171893;28;1153;-73
2021/03/19 00:11:08;;;;;;;8.43;4.53;;;-0.90;99.90;;;-1.14;61.99;97594.69;171849;28;1225;-72
2021/03/19 00:11:15;;;;;;;7.68;4.40;;;-0.90;99.90;;;-1.16;61.81;97589.50;172586;28;1342;-73
2021/03/19 00:11:21;;;;;;;6.93;4.32;;;-0.90;99.90;;;-1.21;62.36;97578.44;171297;28;962;-73
2021/03/19 00:11:27;;;;;;;7.40;4.47;;;-0.90;99.90;;;-1.17;62.39;97589.63;173306;28;1334;-73
2021/03/19 00:11:35;;;;;;;7.80;4.47;;;-1.00;99.90;;;-1.13;62.53;97586.63;173653;28;1727;-73
2021/03/19 00:11:41;;;;;;;8.40;4.53;;;-0.90;99.90;;;-1.16;62.65;97588.66;172564;28;1312;-73
2021/03/19 00:11:47;;;;;;;8.32;4.68;;;-0.90;99.90;;;-1.11;62.77;97589.19;171281;28;1008;-73
2021/03/19 00:11:53;;;;;;;8.05;4.60;;;-0.90;99.90;;;-1.13;62.98;97591.91;171752;28;1301;-73
2021/03/19 00:11:59;;;;;;;8.23;4.57;;;-0.90;99.90;;;-1.11;62.44;97587.38;171768;28;1227;-73
2021/03/19 00:12:06;;;;;;;8.13;4.57;;;-0.90;99.90;;;-1.14;62.20;97592.88;171143;28;1575;-73
2021/03/19 00:12:12;;;;;;;7.90;4.60;;;-0.90;99.90;;;-1.15;62.63;97593.00;171143;28;1140;-72
2021/03/19 00:12:19;;;;;;;8.23;4.70;;;-0.90;99.90;;;-1.11;62.21;97600.59;171251;28;1275;-71
2021/03/19 00:12:25;;;;;;;8.27;4.83;;;-0.90;99.90;;;-1.17;62.09;97593.09;171190;28;1143;-75
2021/03/19 00:12:30;;;;;;;7.88;4.95;;;-0.90;99.90;;;-1.15;62.31;97593.84;169971;29;1030;-73
2021/03/19 00:12:37;;;;;;;7.75;5.00;;;-0.90;99.90;;;-1.10;62.39;97599.63;171291;28;978;-73
2021/03/19 00:12:43;;;;;;;8.13;5.07;;;-0.90;99.90;;;-1.10;62.16;97599.63;170542;29;1146;-73
2021/03/19 00:12:52;;;;;;;9.10;5.13;;;-0.90;99.90;;;-1.11;62.22;97592.66;170651;29;1081;-73
2021/03/19 00:13:08;;;;;;;9.97;5.03;;;-0.90;99.90;;;-1.15;61.82;97582.44;171292;28;1444;-73
2021/03/19 00:13:14;;;;;;;10.39;4.95;;;-0.90;99.90;;;-1.19;61.77;97579.16;159566;29;324631;-73
2021/03/19 00:13:20;;;;;;;9.48;4.82;;;-0.90;99.90;;;-1.10;61.85;97596.16;170739;28;1307;-73
2021/03/19 00:13:26;;;;;;;9.07;4.80;;;-0.90;99.90;;;-1.15;61.89;97591.22;171068;28;1412;-74
2021/03/19 00:13:32;;;;;;;7.97;4.72;;;-0.90;99.90;;;-1.13;61.97;97597.19;171252;28;938;-73
2021/03/19 00:13:38;;;;;;;7.95;4.68;;;-0.90;99.90;;;-1.16;62.01;97584.22;171803;28;1479;-72
2021/03/19 00:13:44;;;;;;;8.30;4.50;;;-0.90;99.90;;;-1.15;62.31;97583.28;171999;28;930;-73
2021/03/19 00:13:50;;;;;;;9.17;4.33;;;-0.90;99.90;;;-1.13;62.08;97596.34;172436;28;1362;-72
2021/03/19 00:13:56;;;;;;;8.98;4.30;;;-0.90;99.90;;;-1.13;62.37;97596.34;170479;29;1214;-72
2021/03/19 00:14:05;;;;;;;10.30;4.55;;;-0.90;99.90;;;-1.14;62.58;97586.78;172513;28;1192;-73
2021/03/19 00:14:11;;;;;;;9.89;4.60;;;-0.90;99.90;;;-1.15;62.34;97582.44;165195;28;193663;-73
2021/03/19 00:14:17;;;;;;;9.55;4.80;;;-0.90;99.90;;;-1.16;62.40;97586.03;170595;29;848;-72
2021/03/19 00:14:23;;;;;;;8.60;4.85;;;-0.90;99.90;;;-1.17;62.12;97579.06;172227;28;1907;-73
2021/03/19 00:14:29;;;;;;;8.23;4.70;;;-0.90;99.90;;;-1.23;62.12;97577.69;171968;28;903;-73
2021/03/19 00:14:35;;;;;;;7.53;4.70;;;-0.90;99.90;;;-1.17;62.17;97587.81;172579;28;1003;-73
2021/03/19 00:14:42;;;;;;;7.40;4.70;;;-0.90;99.90;;;-1.16;62.26;97586.03;172516;28;1209;-73
2021/03/19 00:14:48;;;;;;;7.97;4.73;;;-0.90;99.90;;;-1.23;62.52;97577.69;171072;28;1205;-73
2021/03/19 00:14:54;;;;;;;8.25;4.75;;;-0.90;99.90;;;-1.13;62.40;97596.34;172443;28;1285;-73
2021/03/19 00:15:00;;;;;;;9.07;4.70;;;-0.90;99.90;;;-1.10;62.17;97593.50;172524;28;1196;-74
2021/03/19 00:15:09;;;;;;;9.98;4.80;;;-0.90;99.90;;;-1.15;62.33;97585.94;172739;28;2347;-72
2021/03/19 00:15:20;;;;;;;10.83;4.97;;;-0.90;99.90;;;-1.13;62.39;97591.06;165300;28;193564;-73
2021/03/19 00:15:30;;;;;;;10.17;4.80;;;-0.90;99.90;;;-1.16;62.56;97589.50;160164;28;322068;-73
2021/03/19 00:15:38;;;;;;;8.32;4.63;;;-0.90;99.90;;;-1.16;62.30;97586.88;161147;28;316248;-73
2021/03/19 00:15:44;;;;;;;7.10;4.43;;;-0.90;99.90;;;-1.12;62.79;97593.63;173178;28;1265;-73
2021/03/19 00:15:50;;;;;;;6.95;4.63;;;-0.90;99.90;;;-1.13;62.30;97594.56;172617;28;935;-73
2021/03/19 00:15:56;;;;;;;7.20;4.55;;;-0.90;99.90;;;-1.10;62.41;97590.88;172514;28;1234;-72
2021/03/19 00:16:02;;;;;;;7.55;4.65;;;-0.90;99.90;;;-1.18;62.56;97585.28;171199;28;1110;-72
2021/03/19 00:16:08;;;;;;;7.57;4.67;;;-0.90;99.90;;;-1.12;62.16;97590.97;171116;28;1347;-72
2021/03/19 00:16:14;;;;;;;7.58;4.68;;;-0.90;99.90;;;-1.12;62.26;97596.25;169349;28;57705;-73
2021/03/19 00:16:21;;;;;;;7.10;4.57;;;-0.90;99.90;;;-1.18;62.54;97583.50;171987;28;1394;-71
2021/03/19 00:16:27;;;;;;;6.97;4.67;;;-0.90;99.90;;;-1.19;62.35;97580.97;173195;28;1333;-73
2021/03/19 00:16:33;;;;;;;7.25;4.85;;;-0.90;99.90;;;-1.28;62.32;97569.28;172518;28;1334;-73
2021/03/19 00:16:40;;;;;;;8.03;4.90;;;-0.90;99.90;;;-1.14;62.46;97584.13;171201;28;1242;-73
2021/03/19 00:16:46;;;;;;;8.60;5.00;;;-0.90;99.90;;;-1.14;62.29;97590.22;170556;29;1056;-73
2021/03/19 00:16:52;;;;;;;8.90;5.07;;;-0.90;99.90;;;-1.16;62.50;97586.88;173167;28;1467;-73
2021/03/19 00:16:58;;;;;;;9.00;5.13;;;-0.90;99.90;;;-1.14;62.38;97584.94;172542;28;1193;-73
2021/03/19 00:17:04;;;;;;;9.00;4.90;;;-0.90;99.90;;;-1.13;62.34;97584.00;172007;28;1027;-73
2021/03/19 00:17:10;;;;;;;8.32;4.70;;;-0.90;99.90;;;-1.09;62.77;97592.56;171714;28;1261;-73
2021/03/19 00:17:16;;;;;;;8.05;4.53;;;-0.90;99.90;;;-1.13;62.67;97585.78;172576;28;882;-73
2021/03/19 00:17:22;;;;;;;8.75;4.60;;;-0.90;99.90;;;-1.17;62.27;97584.34;173969;28;922;-73
2021/03/19 00:17:28;;;;;;;9.30;4.60;;;-0.90;99.90;;;-1.11;62.22;97600.59;172216;28;2103;-72
2021/03/19 00:17:34;;;;;;;8.80;4.50;;;-0.90;99.90;;;-1.08;62.32;97592.44;171893;28;2035;-72
2021/03/19 00:17:40;;;;;;;8.98;4.68;;;-0.90;99.90;;;-1.15;62.29;97590.38;171955;28;10726;-73
2021/03/19 00:17:47;;;;;;;9.00;4.77;;;-0.90;99.90;;;-1.18;62.38;97580.84;170571;29;1281;-73
2021/03/19 00:17:57;;;;;;;8.07;4.60;;;-0.90;99.90;;;-1.10;62.35;97590.88;172368;28;2386;-73
2021/03/19 00:18:05;;;;;;;7.89;4.46;;;-0.90;99.90;;;-1.14;62.24;97584.94;162343;28;314870;-73
2021/03/19 00:18:11;;;;;;;8.83;4.40;;;-0.90;99.90;;;-1.15;62.64;97588.56;171840;28;1217;-73
2021/03/19 00:18:18;;;;;;;8.27;4.37;;;-0.90;99.90;;;-1.08;62.57;97597.72;172549;28;1286;-73
2021/03/19 00:18:24;;;;;;;8.23;4.23;;;-0.90;99.90;;;-1.08;62.27;97592.44;173035;28;1250;-73
2021/03/19 00:18:30;;;;;;;8.25;4.28;;;-0.90;99.90;;;-1.11;62.06;97589.19;172030;28;17376;-72
2021/03/19 00:18:36;;;;;;;7.33;4.30;;;-0.90;99.90;;;-1.12;62.48;97587.47;171347;28;923;-73
2021/03/19 00:18:42;;;;;;;7.06;4.44;;;-0.90;99.90;;;-1.10;62.49;97585.59;169937;28;56536;-73
2021/03/19 00:18:48;;;;;;;7.10;4.53;;;-0.90;99.90;;;-1.16;62.58;97576.31;171958;28;864;-73
2021/03/19 00:18:55;;;;;;;6.72;4.50;;;-0.90;99.90;;;-1.12;62.61;97575.13;171779;28;1248;-74
2021/03/19 00:19:02;;;;;;;6.85;4.70;;;-0.90;99.90;;;-1.10;62.32;97591.72;172397;28;1115;-73
2021/03/19 00:19:09;;;;;;;6.44;4.54;;;-0.90;99.90;;;-1.10;62.35;97586.44;171058;28;60537;-74
2021/03/19 00:19:17;;;;;;;5.78;4.38;;;-0.90;99.90;;;-1.12;62.21;97583.03;169413;28;121736;-72
2021/03/19 00:19:23;;;;;;;6.20;4.43;;;-0.90;99.90;;;-1.07;61.79;97580.91;167469;28;122019;-72
2021/03/19 00:19:29;;;;;;;6.40;4.40;;;-0.90;99.90;;;-1.14;62.35;97578.84;170598;29;974;-73
2021/03/19 00:19:35;;;;;;;6.90;4.37;;;-0.90;99.90;;;-1.06;62.37;97597.59;171293;28;1070;-74
2021/03/19 00:19:41;;;;;;;7.20;4.50;;;-0.90;99.90;;;-1.11;62.33;97573.31;171828;28;1355;-73
2021/03/19 00:19:47;;;;;;;6.90;4.32;;;-0.90;99.90;;;-1.05;62.24;97580.81;171910;28;867;-73
2021/03/19 00:19:53;;;;;;;6.65;4.25;;;-0.90;99.90;;;-1.08;62.08;97587.13;171819;28;1110;-73
2021/03/19 00:19:59;;;;;;;6.82;4.22;;;-0.90;99.90;;;-1.10;61.99;97577.66;170646;29;892;-73
2021/03/19 00:20:09;;;;;;;6.82;4.28;;;-0.90;99.90;;;-1.07;62.03;97595.91;171639;28;1203;-73
2021/03/19 00:20:16;;;;;;;7.29;4.41;;;-0.90;99.90;;;-1.11;62.09;97582.09;164603;28;250909;-73
2021/03/19 00:20:22;;;;;;;7.95;4.50;;;-0.90;99.90;;;-1.10;62.02;97585.59;171592;28;1343;-72
2021/03/19 00:20:38;;;;;;;8.06;4.58;;;-0.90;99.90;;;-1.10;61.92;97578.50;169966;28;56313;-73
2021/03/19 00:20:47;;;;;;;8.10;4.54;;;-0.90;99.90;;;-1.08;62.25;97588.94;160358;28;318019;-73
2021/03/19 00:20:53;;;;;;;7.57;4.58;;;-0.90;99.90;;;-1.06;62.10;97595.81;168445;28;121993;-73
2021/03/19 00:20:59;;;;;;;7.23;4.40;;;-0.90;99.90;;;-1.09;61.73;97579.34;172519;28;1453;-74
2021/03/19 00:21:06;;;;;;;7.70;4.50;;;-0.90;99.90;;;-1.13;62.12;97581.34;172550;28;1220;-73
2021/03/19 00:21:12;;;;;;;7.17;4.33;;;-0.90;99.90;;;-1.13;62.34;97588.44;171614;28;1568;-72
2021/03/19 00:21:18;;;;;;;8.70;4.53;;;-0.90;99.90;;;-1.08;61.94;97597.72;173236;28;1397;-73
2021/03/19 00:21:24;;;;;;;8.75;4.60;;;-0.90;99.90;;;-1.11;62.01;97584.75;173104;28;1161;-73
2021/03/19 00:21:31;;;;;;;7.85;4.45;;;-0.90;99.90;;;-1.16;62.21;97576.31;173291;28;1093;-73
2021/03/19 00:21:38;;;;;;;7.78;4.34;;;-0.90;99.90;;;-1.22;62.11;97570.63;170644;28;59123;-73
2021/03/19 00:21:44;;;;;;;7.33;4.50;;;-0.90;99.90;;;-1.09;62.12;97592.56;173353;28;867;-73
2021/03/19 00:21:50;;;;;;;6.65;4.30;;;-0.90;99.90;;;-1.14;62.06;97584.94;171501;28;9220;-73
2021/03/19 00:21:56;;;;;;;7.22;4.43;;;-0.90;99.90;;;-1.13;62.16;97572.59;173779;28;1382;-74
2021/03/19 00:22:02;;;;;;;7.70;4.50;;;-0.90;99.90;;;-1.13;62.01;97581.34;173317;28;910;-73
2021/03/19 00:22:08;;;;;;;7.15;4.32;;;-0.90;99.90;;;-1.11;62.21;97590.03;172493;28;1098;-73
2021/03/19 00:22:14;;;;;;;7.13;4.13;;;-0.90;99.90;;;-1.16;61.83;97583.38;171805;28;1598;-73
2021/03/19 00:22:20;;;;;;;7.78;4.22;;;-0.90;99.90;;;-1.17;62.12;97587.81;171823;28;1323;-71
2021/03/19 00:22:26;;;;;;;7.78;4.18;;;-0.90;99.90;;;-1.11;61.96;97591.81;172893;28;1304;-72
2021/03/19 00:22:32;;;;;;;7.50;4.22;;;-0.90;99.90;;;-1.12;62.11;97579.56;173131;28;1193;-73
2021/03/19 00:22:40;;;;;;;7.80;4.40;;;-0.90;99.90;;;-1.15;62.34;97575.38;171822;28;1296;-73
2021/03/19 00:22:46;;;;;;;7.73;4.30;;;-0.90;99.90;;;-1.15;61.97;97583.28;171964;28;1006;-73
2021/03/19 00:22:53;;;;;;;7.34;4.26;;;-0.90;99.90;;;-1.14;62.29;97584.94;170475;28;57370;-73
2021/03/19 00:23:00;;;;;;;7.38;4.26;;;-0.90;99.90;;;-1.10;62.22;97593.50;170669;28;56477;-73
2021/03/19 00:23:08;;;;;;;7.50;4.34;;;-0.90;99.90;;;-1.09;62.53;97592.56;169993;28;57431;-73
2021/03/19 00:23:15;;;;;;;7.10;4.47;;;-0.90;99.90;;;-1.08;62.42;97587.13;171252;28;950;-73
2021/03/19 00:23:21;;;;;;;7.33;4.40;;;-0.90;99.90;;;-1.11;62.34;97574.16;172518;28;1331;-73
2021/03/19 00:23:27;;;;;;;7.33;4.50;;;-0.90;99.90;;;-1.08;62.67;97589.78;171750;28;1294;-73
2021/03/19 00:23:33;;;;;;;7.27;4.50;;;-0.90;99.90;;;-1.12;62.28;97582.19;171923;28;848;-73
2021/03/19 00:23:39;;;;;;;7.38;4.40;;;-0.90;99.90;;;-1.12;61.99;97583.03;171830;28;1322;-73
2021/03/19 00:23:45;;;;;;;7.60;4.30;;;-0.90;99.90;;;-1.07;62.38;97590.63;170585;29;880;-73
2021/03/19 00:23:51;;;;;;;7.18;4.20;;;-0.90;99.90;;;-1.11;62.20;97582.09;171265;28;1025;-71
2021/03/19 00:23:57;;;;;;;7.00;4.20;;;-0.90;99.90;;;-1.09;62.34;97589.91;173774;28;1287;-73
2021/03/19 00:24:06;;;;;;;6.57;3.90;;;-0.90;99.90;;;-1.21;62.43;97567.88;173338;28;900;-74
2021/03/19 00:24:12;;;;;;;6.07;3.87;;;-0.90;99.90;;;-1.09;62.23;97584.63;171817;28;19968;-72
2021/03/19 00:24:18;;;;;;;6.10;3.93;;;-0.90;99.90;;;-1.08;62.32;97584.50;171593;28;1818;-73
2021/03/19 00:24:24;;;;;;;6.10;3.95;;;-0.90;99.90;;;-1.12;62.10;97580.41;171545;28;2062;-73
2021/03/19 00:24:30;;;;;;;6.15;3.90;;;-0.90;99.90;;;-1.13;62.29;97580.50;171269;28;1071;-73
2021/03/19 00:24:36;;;;;;;6.10;3.90;;;-0.90;99.90;;;-1.13;61.67;97572.59;171943;28;915;-74
2021/03/19 00:24:42;;;;;;;5.97;4.05;;;-0.90;99.90;;;-1.12;61.84;97577.75;172507;28;1229;-73
2021/03/19 00:24:48;;;;;;;6.93;4.15;;;-0.90;99.90;;;-1.10;61.72;97589.06;172565;28;977;-73
2021/03/19 00:24:54;;;;;;;7.68;4.30;;;-0.90;99.90;;;-1.12;62.27;97580.41;171162;28;1123;-71
2021/03/19 00:25:01;;;;;;;9.52;4.57;;;-0.90;99.90;;;-1.14;62.21;97576.22;172545;28;1404;-73
2021/03/19 00:25:08;;;;;;;9.80;4.80;;;-0.90;99.90;;;-1.14;62.27;97577.03;171926;28;1275;-73
2021/03/19 00:25:15;;;;;;;9.57;4.70;;;-0.90;99.90;;;-1.17;62.07;97566.69;172606;28;1424;-73
2021/03/19 00:25:21;;;;;;;9.10;4.64;;;-0.90;99.90;;;-1.12;62.17;97569.84;170687;28;56127;-72
2021/03/19 00:25:28;;;;;;;8.27;4.67;;;-0.90;99.90;;;-1.14;62.16;97574.38;171726;28;1277;-73
2021/03/19 00:25:35;;;;;;;8.34;4.64;;;-0.90;99.90;;;-1.12;62.38;97574.28;169862;28;56893;-73
2021/03/19 00:25:42;;;;;;;8.56;4.68;;;-0.90;99.90;;;-1.10;62.16;97585.59;169066;28;59072;-73
2021/03/19 00:25:48;;;;;;;8.54;4.70;;;-0.90;99.90;;;-1.17;61.71;97569.34;168551;28;58919;-72
2021/03/19 00:25:54;;;;;;;8.28;4.60;;;-0.90;99.90;;;-1.16;61.89;97567.53;169790;28;60221;-74
2021/03/19 00:26:01;;;;;;;7.20;4.50;;;-0.90;99.90;;;-1.15;61.80;97578.00;171850;28;1188;-73
2021/03/19 00:26:08;;;;;;;6.97;4.30;;;-0.90;99.90;;;-1.11;62.34;97583.91;171959;28;922;-73
2021/03/19 00:26:14;;;;;;;7.24;4.40;;;-0.90;99.90;;;-1.15;61.98;97578.00;170028;28;58458;-72
2021/03/19 00:26:20;;;;;;;7.30;4.37;;;-0.90;99.90;;;-1.12;62.21;97588.31;171209;28;2034;-73
2021/03/19 00:26:26;;;;;;;7.33;4.27;;;-0.90;99.90;;;-1.20;61.84;97569.56;171153;28;1951;-72
2021/03/19 00:26:33;;;;;;;7.03;4.15;;;-0.90;99.90;;;-1.16;61.79;97575.47;171783;28;1676;-72
2021/03/19 00:26:40;;;;;;;7.40;4.30;;;-0.90;99.90;;;-1.13;62.08;97581.34;171851;28;1192;-71
2021/03/19 00:26:46;;;;;;;7.47;4.23;;;-0.90;99.90;;;-1.14;62.03;97570.91;171917;28;1205;-73
2021/03/19 00:26:52;;;;;;;7.13;4.10;;;-0.90;99.90;;;-1.11;62.16;97587.38;172595;28;17480;-73
2021/03/19 00:26:58;;;;;;;7.23;4.30;;;-0.90;99.90;;;-1.11;62.03;97590.03;173202;28;1240;-73
2021/03/19 00:27:04;;;;;;;7.65;4.32;;;-0.90;99.90;;;-1.11;62.28;97594.47;172597;28;1060;-73
2021/03/19 00:27:10;;;;;;;7.40;4.15;;;-0.90;99.90;;;-1.18;62.30;97578.22;172501;28;1315;-73
2021/03/19 00:27:16;;;;;;;6.78;4.10;;;-0.90;99.90;;;-1.18;62.27;97577.38;172711;28;17697;-73
2021/03/19 00:27:22;;;;;;;6.63;4.07;;;-0.90;99.90;;;-1.15;61.85;97582.44;171876;28;967;-72
2021/03/19 00:27:28;;;;;;;6.65;4.00;;;-0.90;99.90;;;-1.12;61.93;97590.13;172416;28;1301;-73
2021/03/19 00:27:35;;;;;;;6.75;3.80;;;-0.90;99.90;;;-1.13;61.89;97581.34;173967;28;1167;-73
2021/03/19 00:27:41;;;;;;;6.80;3.70;;;-0.90;99.90;;;-1.26;61.88;97559.44;173776;28;1725;-73
2021/03/19 00:27:47;;;;;;;7.40;3.82;;;-0.90;99.90;;;-1.17;62.23;97574.63;169712;28;87814;-73
2021/03/19 00:27:54;;;;;;;8.05;3.92;;;-0.90;99.90;;;-1.13;61.73;97581.34;173003;28;1846;-73
2021/03/19 00:28:01;;;;;;;8.38;3.92;;;-0.90;99.90;;;-1.16;61.95;97580.75;171824;28;1481;-73
2021/03/19 00:28:13;;;;;;;7.13;3.80;;;-0.90;99.90;;;-1.18;62.04;97580.84;172031;28;1992;-72
2021/03/19 00:28:19;;;;;;;6.46;3.88;;;-0.90;99.90;;;-1.11;62.13;97578.59;160932;28;316120;-73
2021/03/19 00:28:25;;;;;;;5.30;3.78;;;-0.90;99.90;;;-1.13;61.94;97581.34;173032;28;1237;-73
2021/03/19 00:28:31;;;;;;;5.35;3.88;;;-0.90;99.90;;;-1.13;62.14;97584.00;172883;28;4268;-72
2021/03/19 00:28:38;;;;;;;5.55;4.07;;;-0.90;99.90;;;-1.12;61.76;97582.19;173943;28;1020;-73
2021/03/19 00:28:44;;;;;;;5.50;4.10;;;-0.90;99.90;;;-1.12;62.10;97572.47;173865;28;4411;-73
2021/03/19 00:28:51;;;;;;;5.75;4.18;;;-0.90;99.90;;;-1.15;62.22;97567.44;172242;28;11624;-74